Bissell, Illinois
Current Conditions -  °F | °C
As of 12:56 PM on Monday 22 Dec 2014 (Local Time) from KSPI Reporting Station
Light Rain Light Rain  
Wind Chill: 37°   Ceiling: 600
Heat Index: 44°   Visibility: 3mi
Dew Point: 43°   Wind: 14mph
Humidity: 96%   Direction: 160°SSE
Pressure: 29.64"   Gusts: NA
Location:  39.854°N, 89.6295°W
Report Text: KSPI 221856Z 16012KT 3SM -RA BR OVC006 07/06 A2964 RMK AO2 P0000 T00670061
Loading
Personal Weather Stations






























Interactive Weather Map New forecast layout! Learn more

10-Day Weather Forecast

Advertisements
Track Severe Weather on mobile